sensor_id;sensor_type;location;lat;lon;timestamp;P1;durP1;ratioP1;P2;durP2;ratioP2
43337;SDS011;28933;52.492;13.434;2022-11-30T00:00:17;52.58;;;31.52;;
43337;SDS011;28933;52.492;13.434;2022-11-30T00:02:44;52.03;;;34.03;;
43337;SDS011;28933;52.492;13.434;2022-11-30T00:05:10;60.20;;;33.30;;
43337;SDS011;28933;52.492;13.434;2022-11-30T00:07:36;54.25;;;33.72;;
43337;SDS011;28933;52.492;13.434;2022-11-30T00:10:03;54.75;;;32.17;;
43337;SDS011;28933;52.492;13.434;2022-11-30T00:12:30;48.42;;;31.25;;
43337;SDS011;28933;52.492;13.434;2022-11-30T00:14:55;56.53;;;32.13;;
43337;SDS011;28933;52.492;13.434;2022-11-30T00:17:21;55.80;;;35.17;;
43337;SDS011;28933;52.492;13.434;2022-11-30T00:19:47;55.13;;;32.35;;
43337;SDS011;28933;52.492;13.434;2022-11-30T00:22:12;54.67;;;32.92;;
43337;SDS011;28933;52.492;13.434;2022-11-30T00:24:38;59.60;;;33.78;;
43337;SDS011;28933;52.492;13.434;2022-11-30T00:27:04;54.00;;;31.83;;
43337;SDS011;28933;52.492;13.434;2022-11-30T00:29:30;53.45;;;32.72;;
43337;SDS011;28933;52.492;13.434;2022-11-30T00:31:55;53.15;;;31.50;;
43337;SDS011;28933;52.492;13.434;2022-11-30T00:34:21;54.42;;;34.08;;
43337;SDS011;28933;52.492;13.434;2022-11-30T00:36:47;51.45;;;32.13;;
43337;SDS011;28933;52.492;13.434;2022-11-30T00:39:12;50.35;;;32.85;;
43337;SDS011;28933;52.492;13.434;2022-11-30T00:41:38;61.85;;;35.47;;
43337;SDS011;28933;52.492;13.434;2022-11-30T00:44:03;52.17;;;32.08;;
43337;SDS011;28933;52.492;13.434;2022-11-30T00:46:29;52.05;;;31.73;;
43337;SDS011;28933;52.492;13.434;2022-11-30T00:48:55;52.25;;;31.95;;
43337;SDS011;28933;52.492;13.434;2022-11-30T00:51:20;57.22;;;32.40;;
43337;SDS011;28933;52.492;13.434;2022-11-30T00:53:46;49.28;;;31.90;;
43337;SDS011;28933;52.492;13.434;2022-11-30T00:56:12;49.90;;;32.67;;
43337;SDS011;28933;52.492;13.434;2022-11-30T00:58:38;57.35;;;32.97;;
43337;SDS011;28933;52.492;13.434;2022-11-30T01:01:05;53.63;;;33.75;;
43337;SDS011;28933;52.492;13.434;2022-11-30T01:03:31;60.45;;;31.67;;
43337;SDS011;28933;52.492;13.434;2022-11-30T01:06:01;55.42;;;34.40;;
43337;SDS011;28933;52.492;13.434;2022-11-30T01:08:28;55.20;;;33.35;;
43337;SDS011;28933;52.492;13.434;2022-11-30T01:10:54;50.17;;;31.85;;
43337;SDS011;28933;52.492;13.434;2022-11-30T01:13:22;58.95;;;35.63;;
43337;SDS011;28933;52.492;13.434;2022-11-30T01:15:49;52.88;;;32.28;;
43337;SDS011;28933;52.492;13.434;2022-11-30T01:18:14;52.78;;;32.25;;
43337;SDS011;28933;52.492;13.434;2022-11-30T01:20:41;58.47;;;34.92;;
43337;SDS011;28933;52.492;13.434;2022-11-30T01:23:07;53.75;;;33.25;;
43337;SDS011;28933;52.492;13.434;2022-11-30T01:25:33;51.47;;;32.83;;
43337;SDS011;28933;52.492;13.434;2022-11-30T01:27:59;55.85;;;34.20;;
43337;SDS011;28933;52.492;13.434;2022-11-30T01:30:25;58.08;;;36.35;;
43337;SDS011;28933;52.492;13.434;2022-11-30T01:32:50;53.22;;;33.72;;
43337;SDS011;28933;52.492;13.434;2022-11-30T01:35:16;56.90;;;32.45;;
43337;SDS011;28933;52.492;13.434;2022-11-30T01:37:41;53.78;;;33.67;;
43337;SDS011;28933;52.492;13.434;2022-11-30T01:40:07;52.47;;;33.03;;
43337;SDS011;28933;52.492;13.434;2022-11-30T01:42:34;59.50;;;34.53;;
43337;SDS011;28933;52.492;13.434;2022-11-30T01:45:03;55.60;;;34.03;;
43337;SDS011;28933;52.492;13.434;2022-11-30T01:53:03;58.17;;;34.55;;
43337;SDS011;28933;52.492;13.434;2022-11-30T01:55:34;57.78;;;35.53;;
43337;SDS011;28933;52.492;13.434;2022-11-30T02:03:09;51.63;;;31.85;;
43337;SDS011;28933;52.492;13.434;2022-11-30T02:05:50;55.88;;;33.65;;
43337;SDS011;28933;52.492;13.434;2022-11-30T02:08:17;53.00;;;33.00;;
43337;SDS011;28933;52.492;13.434;2022-11-30T02:10:44;61.47;;;34.33;;
43337;SDS011;28933;52.492;13.434;2022-11-30T02:18:53;56.42;;;33.92;;
43337;SDS011;28933;52.492;13.434;2022-11-30T02:30:12;58.35;;;34.08;;
43337;SDS011;28933;52.492;13.434;2022-11-30T02:35:19;53.85;;;33.22;;
43337;SDS011;28933;52.492;13.434;2022-11-30T02:37:48;62.42;;;36.45;;
43337;SDS011;28933;52.492;13.434;2022-11-30T02:40:17;55.63;;;33.17;;
43337;SDS011;28933;52.492;13.434;2022-11-30T02:42:44;56.58;;;35.03;;
43337;SDS011;28933;52.492;13.434;2022-11-30T02:45:11;59.70;;;33.08;;
43337;SDS011;28933;52.492;13.434;2022-11-30T02:47:58;55.92;;;33.67;;
43337;SDS011;28933;52.492;13.434;2022-11-30T02:50:43;55.30;;;32.47;;
43337;SDS011;28933;52.492;13.434;2022-11-30T02:53:15;56.03;;;34.13;;
43337;SDS011;28933;52.492;13.434;2022-11-30T02:55:41;55.33;;;33.63;;
43337;SDS011;28933;52.492;13.434;2022-11-30T02:58:07;53.65;;;33.40;;
43337;SDS011;28933;52.492;13.434;2022-11-30T03:00:33;57.20;;;33.13;;
43337;SDS011;28933;52.492;13.434;2022-11-30T03:02:58;53.90;;;33.85;;
43337;SDS011;28933;52.492;13.434;2022-11-30T03:05:24;59.90;;;35.95;;
43337;SDS011;28933;52.492;13.434;2022-11-30T03:07:49;52.60;;;35.85;;
43337;SDS011;28933;52.492;13.434;2022-11-30T03:10:15;53.80;;;32.78;;
43337;SDS011;28933;52.492;13.434;2022-11-30T03:12:41;54.70;;;33.88;;
43337;SDS011;28933;52.492;13.434;2022-11-30T03:15:07;54.75;;;34.47;;
43337;SDS011;28933;52.492;13.434;2022-11-30T03:17:33;53.33;;;33.47;;
43337;SDS011;28933;52.492;13.434;2022-11-30T03:19:58;54.95;;;34.97;;
43337;SDS011;28933;52.492;13.434;2022-11-30T03:22:25;55.25;;;34.08;;
43337;SDS011;28933;52.492;13.434;2022-11-30T03:24:51;62.05;;;35.53;;
43337;SDS011;28933;52.492;13.434;2022-11-30T03:27:16;53.97;;;34.10;;
43337;SDS011;28933;52.492;13.434;2022-11-30T03:29:42;51.00;;;33.80;;
43337;SDS011;28933;52.492;13.434;2022-11-30T03:32:08;55.85;;;33.42;;
43337;SDS011;28933;52.492;13.434;2022-11-30T03:34:33;54.30;;;32.22;;
43337;SDS011;28933;52.492;13.434;2022-11-30T03:36:59;55.28;;;34.13;;
43337;SDS011;28933;52.492;13.434;2022-11-30T03:39:24;50.17;;;32.97;;
43337;SDS011;28933;52.492;13.434;2022-11-30T03:41:51;54.45;;;34.92;;
43337;SDS011;28933;52.492;13.434;2022-11-30T03:44:16;52.47;;;32.30;;
43337;SDS011;28933;52.492;13.434;2022-11-30T03:46:42;53.20;;;31.33;;
43337;SDS011;28933;52.492;13.434;2022-11-30T03:49:08;54.17;;;32.33;;
43337;SDS011;28933;52.492;13.434;2022-11-30T03:51:33;54.55;;;33.30;;
43337;SDS011;28933;52.492;13.434;2022-11-30T03:53:59;56.13;;;34.35;;
43337;SDS011;28933;52.492;13.434;2022-11-30T03:56:25;59.80;;;36.35;;
43337;SDS011;28933;52.492;13.434;2022-11-30T03:58:51;58.38;;;35.15;;
43337;SDS011;28933;52.492;13.434;2022-11-30T04:01:19;57.80;;;36.35;;
43337;SDS011;28933;52.492;13.434;2022-11-30T04:03:49;56.13;;;33.05;;
43337;SDS011;28933;52.492;13.434;2022-11-30T04:06:15;55.83;;;34.08;;
43337;SDS011;28933;52.492;13.434;2022-11-30T04:08:42;56.05;;;34.70;;
43337;SDS011;28933;52.492;13.434;2022-11-30T04:11:08;59.03;;;36.03;;
43337;SDS011;28933;52.492;13.434;2022-11-30T04:13:35;58.92;;;35.63;;
43337;SDS011;28933;52.492;13.434;2022-11-30T04:16:03;59.35;;;37.38;;
43337;SDS011;28933;52.492;13.434;2022-11-30T04:18:30;51.88;;;33.58;;
43337;SDS011;28933;52.492;13.434;2022-11-30T04:20:57;55.95;;;34.70;;
43337;SDS011;28933;52.492;13.434;2022-11-30T04:23:27;54.97;;;33.22;;
43337;SDS011;28933;52.492;13.434;2022-11-30T04:25:55;58.05;;;36.67;;
43337;SDS011;28933;52.492;13.434;2022-11-30T04:28:21;58.22;;;34.47;;
43337;SDS011;28933;52.492;13.434;2022-11-30T04:30:47;61.10;;;36.58;;
43337;SDS011;28933;52.492;13.434;2022-11-30T04:33:13;56.08;;;34.92;;
43337;SDS011;28933;52.492;13.434;2022-11-30T04:35:41;60.97;;;37.65;;
43337;SDS011;28933;52.492;13.434;2022-11-30T04:38:11;56.72;;;36.22;;
43337;SDS011;28933;52.492;13.434;2022-11-30T04:40:41;58.53;;;34.13;;
43337;SDS011;28933;52.492;13.434;2022-11-30T04:43:07;59.53;;;35.58;;
43337;SDS011;28933;52.492;13.434;2022-11-30T04:45:34;56.50;;;33.53;;
43337;SDS011;28933;52.492;13.434;2022-11-30T04:48:00;58.70;;;36.00;;
43337;SDS011;28933;52.492;13.434;2022-11-30T04:50:27;57.47;;;35.40;;
43337;SDS011;28933;52.492;13.434;2022-11-30T04:52:53;57.05;;;35.08;;
43337;SDS011;28933;52.492;13.434;2022-11-30T04:55:18;57.42;;;35.03;;
43337;SDS011;28933;52.492;13.434;2022-11-30T04:57:44;61.53;;;36.65;;
43337;SDS011;28933;52.492;13.434;2022-11-30T05:00:11;57.72;;;34.53;;
43337;SDS011;28933;52.492;13.434;2022-11-30T05:02:39;60.30;;;35.67;;
43337;SDS011;28933;52.492;13.434;2022-11-30T05:05:05;58.25;;;35.38;;
43337;SDS011;28933;52.492;13.434;2022-11-30T05:07:31;55.38;;;34.20;;
43337;SDS011;28933;52.492;13.434;2022-11-30T05:09:56;57.22;;;34.40;;
43337;SDS011;28933;52.492;13.434;2022-11-30T05:12:22;58.22;;;36.00;;
43337;SDS011;28933;52.492;13.434;2022-11-30T05:14:49;55.15;;;31.90;;
43337;SDS011;28933;52.492;13.434;2022-11-30T05:17:15;56.88;;;34.15;;
43337;SDS011;28933;52.492;13.434;2022-11-30T05:19:40;56.38;;;32.50;;
43337;SDS011;28933;52.492;13.434;2022-11-30T05:22:06;60.47;;;35.70;;
43337;SDS011;28933;52.492;13.434;2022-11-30T05:24:33;59.90;;;33.55;;
43337;SDS011;28933;52.492;13.434;2022-11-30T05:26:59;61.83;;;34.35;;
43337;SDS011;28933;52.492;13.434;2022-11-30T05:29:25;56.58;;;33.45;;
43337;SDS011;28933;52.492;13.434;2022-11-30T05:31:50;57.63;;;36.30;;
43337;SDS011;28933;52.492;13.434;2022-11-30T05:34:16;55.22;;;34.05;;
43337;SDS011;28933;52.492;13.434;2022-11-30T05:36:43;57.20;;;32.88;;
43337;SDS011;28933;52.492;13.434;2022-11-30T05:39:08;55.72;;;34.03;;
43337;SDS011;28933;52.492;13.434;2022-11-30T05:41:34;54.10;;;33.63;;
43337;SDS011;28933;52.492;13.434;2022-11-30T05:44:00;57.25;;;33.95;;
43337;SDS011;28933;52.492;13.434;2022-11-30T05:46:27;57.97;;;34.58;;
43337;SDS011;28933;52.492;13.434;2022-11-30T05:48:52;59.95;;;36.53;;
43337;SDS011;28933;52.492;13.434;2022-11-30T05:51:18;52.50;;;33.65;;
43337;SDS011;28933;52.492;13.434;2022-11-30T05:53:45;57.58;;;35.10;;
43337;SDS011;28933;52.492;13.434;2022-11-30T05:56:12;55.20;;;35.08;;
43337;SDS011;28933;52.492;13.434;2022-11-30T05:58:40;52.15;;;32.17;;
43337;SDS011;28933;52.492;13.434;2022-11-30T06:01:07;57.53;;;34.80;;
43337;SDS011;28933;52.492;13.434;2022-11-30T06:03:42;59.55;;;34.83;;
43337;SDS011;28933;52.492;13.434;2022-11-30T06:06:07;56.55;;;33.55;;
43337;SDS011;28933;52.492;13.434;2022-11-30T06:08:33;55.22;;;33.22;;
43337;SDS011;28933;52.492;13.434;2022-11-30T06:10:59;59.00;;;34.22;;
43337;SDS011;28933;52.492;13.434;2022-11-30T06:13:26;55.42;;;32.22;;
43337;SDS011;28933;52.492;13.434;2022-11-30T06:15:51;51.97;;;33.13;;
43337;SDS011;28933;52.492;13.434;2022-11-30T06:18:17;53.75;;;34.38;;
43337;SDS011;28933;52.492;13.434;2022-11-30T06:20:43;58.63;;;34.63;;
43337;SDS011;28933;52.492;13.434;2022-11-30T06:23:08;54.90;;;33.50;;
43337;SDS011;28933;52.492;13.434;2022-11-30T06:25:34;57.22;;;33.60;;
43337;SDS011;28933;52.492;13.434;2022-11-30T06:27:59;56.30;;;34.08;;
43337;SDS011;28933;52.492;13.434;2022-11-30T06:30:25;53.72;;;34.30;;
43337;SDS011;28933;52.492;13.434;2022-11-30T06:32:51;53.20;;;32.13;;
43337;SDS011;28933;52.492;13.434;2022-11-30T06:35:16;50.92;;;31.23;;
43337;SDS011;28933;52.492;13.434;2022-11-30T06:37:43;51.60;;;32.53;;
43337;SDS011;28933;52.492;13.434;2022-11-30T06:40:09;54.80;;;32.70;;
43337;SDS011;28933;52.492;13.434;2022-11-30T06:42:36;53.25;;;31.50;;
43337;SDS011;28933;52.492;13.434;2022-11-30T06:45:02;55.55;;;34.03;;
43337;SDS011;28933;52.492;13.434;2022-11-30T06:47:29;53.55;;;32.75;;
43337;SDS011;28933;52.492;13.434;2022-11-30T06:49:55;49.70;;;32.60;;
43337;SDS011;28933;52.492;13.434;2022-11-30T06:52:21;57.33;;;34.60;;
43337;SDS011;28933;52.492;13.434;2022-11-30T06:54:47;56.75;;;32.53;;
43337;SDS011;28933;52.492;13.434;2022-11-30T06:57:13;52.13;;;32.70;;
43337;SDS011;28933;52.492;13.434;2022-11-30T06:59:39;55.10;;;33.95;;
43337;SDS011;28933;52.492;13.434;2022-11-30T07:02:11;58.40;;;34.67;;
43337;SDS011;28933;52.492;13.434;2022-11-30T07:04:37;52.13;;;31.88;;
43337;SDS011;28933;52.492;13.434;2022-11-30T07:07:03;47.83;;;30.65;;
43337;SDS011;28933;52.492;13.434;2022-11-30T07:09:29;56.20;;;32.70;;
43337;SDS011;28933;52.492;13.434;2022-11-30T07:11:57;51.88;;;32.90;;
43337;SDS011;28933;52.492;13.434;2022-11-30T07:14:23;52.70;;;33.22;;
43337;SDS011;28933;52.492;13.434;2022-11-30T07:16:49;51.33;;;31.98;;
43337;SDS011;28933;52.492;13.434;2022-11-30T07:19:15;51.85;;;31.23;;
43337;SDS011;28933;52.492;13.434;2022-11-30T07:21:41;54.35;;;31.85;;
43337;SDS011;28933;52.492;13.434;2022-11-30T07:24:07;52.78;;;32.25;;
43337;SDS011;28933;52.492;13.434;2022-11-30T07:26:54;52.83;;;34.20;;
43337;SDS011;28933;52.492;13.434;2022-11-30T07:29:20;53.03;;;33.15;;
43337;SDS011;28933;52.492;13.434;2022-11-30T07:31:50;56.42;;;34.30;;
43337;SDS011;28933;52.492;13.434;2022-11-30T07:34:16;53.55;;;32.55;;
43337;SDS011;28933;52.492;13.434;2022-11-30T07:36:42;50.58;;;29.95;;
43337;SDS011;28933;52.492;13.434;2022-11-30T07:39:08;50.05;;;31.13;;
43337;SDS011;28933;52.492;13.434;2022-11-30T07:41:34;52.70;;;31.67;;
43337;SDS011;28933;52.492;13.434;2022-11-30T07:44:02;58.97;;;33.38;;
43337;SDS011;28933;52.492;13.434;2022-11-30T07:46:28;57.38;;;32.33;;
43337;SDS011;28933;52.492;13.434;2022-11-30T07:48:55;56.30;;;33.35;;
43337;SDS011;28933;52.492;13.434;2022-11-30T07:51:21;61.00;;;32.95;;
43337;SDS011;28933;52.492;13.434;2022-11-30T07:53:50;57.28;;;34.25;;
43337;SDS011;28933;52.492;13.434;2022-11-30T07:56:18;54.58;;;32.75;;
43337;SDS011;28933;52.492;13.434;2022-11-30T07:58:45;54.30;;;32.60;;
43337;SDS011;28933;52.492;13.434;2022-11-30T08:01:13;51.72;;;30.40;;
43337;SDS011;28933;52.492;13.434;2022-11-30T08:03:41;52.20;;;30.83;;
43337;SDS011;28933;52.492;13.434;2022-11-30T08:06:07;56.13;;;34.25;;
43337;SDS011;28933;52.492;13.434;2022-11-30T08:08:36;57.58;;;32.50;;
43337;SDS011;28933;52.492;13.434;2022-11-30T08:11:08;55.97;;;34.17;;
43337;SDS011;28933;52.492;13.434;2022-11-30T08:13:36;57.83;;;32.58;;
43337;SDS011;28933;52.492;13.434;2022-11-30T08:16:04;57.55;;;34.53;;
43337;SDS011;28933;52.492;13.434;2022-11-30T08:18:31;59.60;;;33.55;;
43337;SDS011;28933;52.492;13.434;2022-11-30T08:20:57;56.67;;;33.42;;
43337;SDS011;28933;52.492;13.434;2022-11-30T08:23:26;55.70;;;33.92;;
43337;SDS011;28933;52.492;13.434;2022-11-30T08:25:53;50.55;;;32.67;;
43337;SDS011;28933;52.492;13.434;2022-11-30T08:28:18;57.22;;;34.55;;
43337;SDS011;28933;52.492;13.434;2022-11-30T08:30:44;51.70;;;31.95;;
43337;SDS011;28933;52.492;13.434;2022-11-30T08:33:10;52.90;;;32.83;;
43337;SDS011;28933;52.492;13.434;2022-11-30T08:35:36;54.92;;;33.22;;
43337;SDS011;28933;52.492;13.434;2022-11-30T08:38:01;52.03;;;33.63;;
43337;SDS011;28933;52.492;13.434;2022-11-30T08:40:27;55.67;;;33.00;;
43337;SDS011;28933;52.492;13.434;2022-11-30T08:42:52;53.42;;;32.17;;
43337;SDS011;28933;52.492;13.434;2022-11-30T08:45:18;53.63;;;32.33;;
43337;SDS011;28933;52.492;13.434;2022-11-30T08:47:43;53.67;;;31.67;;
43337;SDS011;28933;52.492;13.434;2022-11-30T08:50:09;58.05;;;32.92;;
43337;SDS011;28933;52.492;13.434;2022-11-30T08:52:35;57.25;;;35.35;;
43337;SDS011;28933;52.492;13.434;2022-11-30T08:55:01;49.25;;;31.77;;
43337;SDS011;28933;52.492;13.434;2022-11-30T08:57:26;53.53;;;33.78;;
43337;SDS011;28933;52.492;13.434;2022-11-30T08:59:52;51.42;;;30.25;;
43337;SDS011;28933;52.492;13.434;2022-11-30T09:02:18;53.17;;;31.00;;
43337;SDS011;28933;52.492;13.434;2022-11-30T09:04:45;48.55;;;30.88;;
43337;SDS011;28933;52.492;13.434;2022-11-30T09:07:13;55.90;;;33.10;;
43337;SDS011;28933;52.492;13.434;2022-11-30T09:09:39;57.90;;;36.33;;
43337;SDS011;28933;52.492;13.434;2022-11-30T09:12:05;55.72;;;34.95;;
43337;SDS011;28933;52.492;13.434;2022-11-30T09:14:32;57.15;;;34.38;;
43337;SDS011;28933;52.492;13.434;2022-11-30T09:16:59;58.13;;;34.28;;
43337;SDS011;28933;52.492;13.434;2022-11-30T09:19:26;57.58;;;34.42;;
43337;SDS011;28933;52.492;13.434;2022-11-30T09:21:51;49.47;;;32.72;;
43337;SDS011;28933;52.492;13.434;2022-11-30T09:24:17;52.47;;;33.75;;
43337;SDS011;28933;52.492;13.434;2022-11-30T09:26:43;51.80;;;31.30;;
43337;SDS011;28933;52.492;13.434;2022-11-30T09:29:09;51.50;;;31.48;;
43337;SDS011;28933;52.492;13.434;2022-11-30T09:31:34;55.88;;;31.13;;
43337;SDS011;28933;52.492;13.434;2022-11-30T09:34:00;56.00;;;31.10;;
43337;SDS011;28933;52.492;13.434;2022-11-30T09:36:26;58.55;;;35.13;;
43337;SDS011;28933;52.492;13.434;2022-11-30T09:38:53;50.72;;;30.90;;
43337;SDS011;28933;52.492;13.434;2022-11-30T09:44:30;55.28;;;33.38;;
43337;SDS011;28933;52.492;13.434;2022-11-30T09:49:56;52.08;;;31.55;;
43337;SDS011;28933;52.492;13.434;2022-11-30T09:52:32;55.75;;;31.27;;
43337;SDS011;28933;52.492;13.434;2022-11-30T09:55:09;56.10;;;33.45;;
43337;SDS011;28933;52.492;13.434;2022-11-30T10:02:39;55.88;;;34.10;;
43337;SDS011;28933;52.492;13.434;2022-11-30T10:05:16;58.47;;;34.33;;
43337;SDS011;28933;52.492;13.434;2022-11-30T10:30:14;53.17;;;32.00;;
43337;SDS011;28933;52.492;13.434;2022-11-30T10:32:47;56.28;;;35.25;;
43337;SDS011;28933;52.492;13.434;2022-11-30T10:35:37;58.97;;;35.83;;
43337;SDS011;28933;52.492;13.434;2022-11-30T10:45:54;57.08;;;33.22;;
43337;SDS011;28933;52.492;13.434;2022-11-30T10:50:55;52.35;;;33.10;;
43337;SDS011;28933;52.492;13.434;2022-11-30T10:53:21;52.45;;;32.08;;
43337;SDS011;28933;52.492;13.434;2022-11-30T10:55:53;51.05;;;29.13;;
43337;SDS011;28933;52.492;13.434;2022-11-30T11:01:06;50.72;;;31.73;;
43337;SDS011;28933;52.492;13.434;2022-11-30T11:06:47;54.53;;;32.50;;
43337;SDS011;28933;52.492;13.434;2022-11-30T11:12:03;49.63;;;31.08;;
43337;SDS011;28933;52.492;13.434;2022-11-30T11:15:09;54.80;;;34.47;;
43337;SDS011;28933;52.492;13.434;2022-11-30T11:17:48;49.33;;;31.95;;
43337;SDS011;28933;52.492;13.434;2022-11-30T11:20:32;53.28;;;32.72;;
43337;SDS011;28933;52.492;13.434;2022-11-30T11:22:59;56.33;;;33.83;;
43337;SDS011;28933;52.492;13.434;2022-11-30T11:25:36;51.50;;;32.70;;
43337;SDS011;28933;52.492;13.434;2022-11-30T11:28:11;50.63;;;32.55;;
43337;SDS011;28933;52.492;13.434;2022-11-30T11:30:39;52.88;;;31.88;;
43337;SDS011;28933;52.492;13.434;2022-11-30T11:33:17;51.80;;;34.92;;
43337;SDS011;28933;52.492;13.434;2022-11-30T11:35:49;56.05;;;34.78;;
43337;SDS011;28933;52.492;13.434;2022-11-30T11:41:02;61.53;;;37.28;;
43337;SDS011;28933;52.492;13.434;2022-11-30T11:43:31;57.75;;;36.35;;
43337;SDS011;28933;52.492;13.434;2022-11-30T11:46:09;63.50;;;36.22;;
43337;SDS011;28933;52.492;13.434;2022-11-30T11:51:05;51.47;;;33.15;;
43337;SDS011;28933;52.492;13.434;2022-11-30T11:53:39;54.42;;;31.73;;
43337;SDS011;28933;52.492;13.434;2022-11-30T11:56:23;59.60;;;37.13;;
43337;SDS011;28933;52.492;13.434;2022-11-30T11:58:54;53.55;;;33.58;;
43337;SDS011;28933;52.492;13.434;2022-11-30T12:07:17;57.50;;;34.83;;
43337;SDS011;28933;52.492;13.434;2022-11-30T12:10:05;58.05;;;34.63;;
43337;SDS011;28933;52.492;13.434;2022-11-30T12:12:39;56.72;;;33.55;;
43337;SDS011;28933;52.492;13.434;2022-11-30T12:15:08;55.30;;;36.08;;
43337;SDS011;28933;52.492;13.434;2022-11-30T12:17:49;62.58;;;37.55;;
43337;SDS011;28933;52.492;13.434;2022-11-30T12:23:38;56.78;;;34.30;;
43337;SDS011;28933;52.492;13.434;2022-11-30T12:31:16;61.45;;;37.25;;
43337;SDS011;28933;52.492;13.434;2022-11-30T12:42:00;58.97;;;36.60;;
43337;SDS011;28933;52.492;13.434;2022-11-30T12:52:37;65.10;;;39.53;;
43337;SDS011;28933;52.492;13.434;2022-11-30T13:03:46;66.05;;;38.13;;
43337;SDS011;28933;52.492;13.434;2022-11-30T13:06:51;65.40;;;39.00;;
43337;SDS011;28933;52.492;13.434;2022-11-30T13:11:50;71.32;;;42.63;;
43337;SDS011;28933;52.492;13.434;2022-11-30T13:14:23;71.95;;;41.30;;
43337;SDS011;28933;52.492;13.434;2022-11-30T13:17:02;65.60;;;40.35;;
43337;SDS011;28933;52.492;13.434;2022-11-30T13:22:10;64.85;;;38.88;;
43337;SDS011;28933;52.492;13.434;2022-11-30T13:24:42;63.78;;;37.42;;
43337;SDS011;28933;52.492;13.434;2022-11-30T13:27:18;66.55;;;37.55;;
43337;SDS011;28933;52.492;13.434;2022-11-30T13:30:12;59.47;;;33.60;;
43337;SDS011;28933;52.492;13.434;2022-11-30T13:32:44;63.08;;;38.15;;
43337;SDS011;28933;52.492;13.434;2022-11-30T13:38:04;63.80;;;37.28;;
43337;SDS011;28933;52.492;13.434;2022-11-30T13:40:56;61.92;;;36.08;;
43337;SDS011;28933;52.492;13.434;2022-11-30T13:43:22;71.53;;;39.90;;
43337;SDS011;28933;52.492;13.434;2022-11-30T13:46:04;72.72;;;40.45;;
43337;SDS011;28933;52.492;13.434;2022-11-30T13:48:37;73.53;;;39.10;;
43337;SDS011;28933;52.492;13.434;2022-11-30T13:51:05;67.03;;;37.50;;
43337;SDS011;28933;52.492;13.434;2022-11-30T13:53:32;66.72;;;37.58;;
43337;SDS011;28933;52.492;13.434;2022-11-30T13:56:00;68.25;;;38.25;;
43337;SDS011;28933;52.492;13.434;2022-11-30T13:58:29;66.03;;;37.92;;
43337;SDS011;28933;52.492;13.434;2022-11-30T14:07:00;72.63;;;39.60;;
43337;SDS011;28933;52.492;13.434;2022-11-30T14:14:55;71.43;;;40.20;;
43337;SDS011;28933;52.492;13.434;2022-11-30T14:17:25;70.13;;;38.80;;
43337;SDS011;28933;52.492;13.434;2022-11-30T14:19:58;75.05;;;40.08;;
43337;SDS011;28933;52.492;13.434;2022-11-30T14:22:33;83.35;;;38.78;;
43337;SDS011;28933;52.492;13.434;2022-11-30T14:24:59;69.20;;;36.95;;
43337;SDS011;28933;52.492;13.434;2022-11-30T14:27:28;71.75;;;38.92;;
43337;SDS011;28933;52.492;13.434;2022-11-30T14:29:55;75.43;;;39.58;;
43337;SDS011;28933;52.492;13.434;2022-11-30T14:32:28;80.65;;;40.08;;
43337;SDS011;28933;52.492;13.434;2022-11-30T14:35:12;85.25;;;40.53;;
43337;SDS011;28933;52.492;13.434;2022-11-30T14:37:51;78.80;;;40.03;;
43337;SDS011;28933;52.492;13.434;2022-11-30T14:40:20;94.05;;;50.00;;
43337;SDS011;28933;52.492;13.434;2022-11-30T14:45:18;80.18;;;40.72;;
43337;SDS011;28933;52.492;13.434;2022-11-30T14:47:50;89.07;;;46.30;;
43337;SDS011;28933;52.492;13.434;2022-11-30T14:50:41;89.32;;;42.33;;
43337;SDS011;28933;52.492;13.434;2022-11-30T14:53:27;92.13;;;44.10;;
43337;SDS011;28933;52.492;13.434;2022-11-30T14:56:23;84.60;;;40.88;;
43337;SDS011;28933;52.492;13.434;2022-11-30T15:01:40;81.30;;;42.78;;
43337;SDS011;28933;52.492;13.434;2022-11-30T15:04:13;84.65;;;39.60;;
43337;SDS011;28933;52.492;13.434;2022-11-30T15:06:41;94.15;;;44.88;;
43337;SDS011;28933;52.492;13.434;2022-11-30T15:09:12;83.57;;;41.95;;
43337;SDS011;28933;52.492;13.434;2022-11-30T15:11:42;91.15;;;43.30;;
43337;SDS011;28933;52.492;13.434;2022-11-30T15:14:10;88.70;;;40.78;;
43337;SDS011;28933;52.492;13.434;2022-11-30T15:16:36;89.78;;;44.97;;
43337;SDS011;28933;52.492;13.434;2022-11-30T15:19:22;86.30;;;42.17;;
43337;SDS011;28933;52.492;13.434;2022-11-30T15:21:48;82.53;;;41.50;;
43337;SDS011;28933;52.492;13.434;2022-11-30T15:24:15;82.07;;;42.60;;
43337;SDS011;28933;52.492;13.434;2022-11-30T15:29:35;79.85;;;41.05;;
43337;SDS011;28933;52.492;13.434;2022-11-30T15:32:05;87.45;;;41.95;;
43337;SDS011;28933;52.492;13.434;2022-11-30T15:34:43;80.10;;;40.50;;
43337;SDS011;28933;52.492;13.434;2022-11-30T15:37:12;79.40;;;41.05;;
43337;SDS011;28933;52.492;13.434;2022-11-30T15:39:39;81.10;;;39.88;;
43337;SDS011;28933;52.492;13.434;2022-11-30T15:42:13;73.35;;;37.50;;
43337;SDS011;28933;52.492;13.434;2022-11-30T15:44:44;86.22;;;42.63;;
43337;SDS011;28933;52.492;13.434;2022-11-30T15:47:25;84.72;;;41.42;;
43337;SDS011;28933;52.492;13.434;2022-11-30T15:50:01;77.03;;;37.95;;
43337;SDS011;28933;52.492;13.434;2022-11-30T15:52:42;82.20;;;37.63;;
43337;SDS011;28933;52.492;13.434;2022-11-30T15:55:38;81.05;;;38.08;;
43337;SDS011;28933;52.492;13.434;2022-11-30T15:58:23;78.43;;;35.92;;
43337;SDS011;28933;52.492;13.434;2022-11-30T16:00:57;74.43;;;38.00;;
43337;SDS011;28933;52.492;13.434;2022-11-30T16:03:46;87.05;;;38.92;;
43337;SDS011;28933;52.492;13.434;2022-11-30T16:06:20;75.50;;;38.15;;
43337;SDS011;28933;52.492;13.434;2022-11-30T16:08:47;73.70;;;36.28;;
43337;SDS011;28933;52.492;13.434;2022-11-30T16:11:14;79.13;;;39.60;;
43337;SDS011;28933;52.492;13.434;2022-11-30T16:13:41;82.20;;;39.67;;
43337;SDS011;28933;52.492;13.434;2022-11-30T16:16:17;75.22;;;36.53;;
43337;SDS011;28933;52.492;13.434;2022-11-30T16:18:44;78.28;;;38.20;;
43337;SDS011;28933;52.492;13.434;2022-11-30T16:21:11;81.90;;;37.88;;
43337;SDS011;28933;52.492;13.434;2022-11-30T16:23:40;79.47;;;37.55;;
43337;SDS011;28933;52.492;13.434;2022-11-30T16:26:13;81.30;;;37.90;;
43337;SDS011;28933;52.492;13.434;2022-11-30T16:28:40;75.10;;;36.70;;
43337;SDS011;28933;52.492;13.434;2022-11-30T16:31:10;68.32;;;34.92;;
43337;SDS011;28933;52.492;13.434;2022-11-30T16:33:39;81.97;;;38.28;;
43337;SDS011;28933;52.492;13.434;2022-11-30T16:36:06;64.50;;;34.17;;
43337;SDS011;28933;52.492;13.434;2022-11-30T16:38:33;75.25;;;36.30;;
43337;SDS011;28933;52.492;13.434;2022-11-30T16:41:12;74.22;;;36.80;;
43337;SDS011;28933;52.492;13.434;2022-11-30T16:43:40;70.95;;;35.10;;
43337;SDS011;28933;52.492;13.434;2022-11-30T16:46:08;78.57;;;36.83;;
43337;SDS011;28933;52.492;13.434;2022-11-30T16:48:38;80.88;;;37.67;;
43337;SDS011;28933;52.492;13.434;2022-11-30T16:51:03;78.38;;;37.95;;